createdAt,value
2018-06-02T00:01:26.455Z,7.20
2018-06-02T00:06:29.028Z,5.43
2018-06-02T00:11:31.600Z,6.37
2018-06-02T00:16:34.134Z,5.77
2018-06-02T00:21:37.474Z,5.17
2018-06-02T00:26:40.028Z,6.80
2018-06-02T00:31:43.337Z,5.27
2018-06-02T00:36:45.886Z,4.63
2018-06-02T00:41:48.422Z,7.67
2018-06-02T00:46:50.975Z,6.77
2018-06-02T00:51:54.099Z,6.30
2018-06-02T00:56:56.633Z,5.60
2018-06-02T01:01:59.938Z,4.87
2018-06-02T01:07:02.481Z,6.27
2018-06-02T01:12:05.018Z,5.70
2018-06-02T01:17:07.570Z,5.67
2018-06-02T01:22:10.143Z,5.43
2018-06-02T01:27:12.690Z,6.00
2018-06-02T01:32:15.290Z,5.03
2018-06-02T01:37:17.842Z,5.93
2018-06-02T01:42:20.398Z,4.60
2018-06-02T01:47:23.701Z,5.33
2018-06-02T01:52:26.246Z,5.10
2018-06-02T01:57:28.822Z,4.47
2018-06-02T02:02:31.403Z,4.23
2018-06-02T02:07:34.739Z,4.27
2018-06-02T02:12:37.288Z,4.10
2018-06-02T02:17:39.877Z,3.73
2018-06-02T02:22:42.438Z,5.10
2018-06-02T02:27:45.003Z,5.33
2018-06-02T02:32:47.563Z,5.90
2018-06-02T02:37:50.107Z,5.80
2018-06-02T02:42:52.638Z,5.30
2018-06-02T02:47:55.181Z,4.90
2018-06-02T02:52:58.488Z,4.60
2018-06-02T02:58:01.796Z,3.97
2018-06-02T03:03:05.118Z,4.73
2018-06-02T03:08:08.440Z,6.87
2018-06-02T03:13:10.994Z,5.37
2018-06-02T03:18:13.538Z,4.87
2018-06-02T03:23:16.072Z,4.30
2018-06-02T03:28:18.673Z,6.27
2018-06-02T03:33:21.215Z,5.47
2018-06-02T03:38:23.855Z,5.73
2018-06-02T03:43:27.374Z,4.73
2018-06-02T03:48:29.931Z,5.20
2018-06-02T03:53:32.577Z,5.20
2018-06-02T03:58:35.166Z,4.83
2018-06-02T04:03:37.722Z,5.40
2018-06-02T04:08:40.297Z,5.27
2018-06-02T04:13:43.314Z,6.50
2018-06-02T04:18:45.858Z,5.00
2018-06-02T04:23:48.442Z,7.43
2018-06-02T04:28:50.968Z,5.07
2018-06-02T04:33:54.285Z,6.63
2018-06-02T04:38:57.622Z,6.77
2018-06-02T04:44:00.204Z,8.03
2018-06-02T04:49:02.782Z,6.97
2018-06-02T04:54:06.134Z,7.43
2018-06-02T04:59:08.711Z,6.17
2018-06-02T05:04:11.281Z,7.40
2018-06-02T05:09:14.598Z,6.27
2018-06-02T05:14:18.367Z,7.37
2018-06-02T05:19:20.951Z,5.73
2018-06-02T05:24:23.528Z,4.87
2018-06-02T05:29:26.097Z,6.77
2018-06-02T05:34:29.430Z,10.93
2018-06-02T05:39:32.743Z,7.80
2018-06-02T05:44:36.061Z,6.97
2018-06-02T05:49:38.597Z,8.00
2018-06-02T05:54:41.222Z,6.93
2018-06-02T05:59:45.167Z,9.20
2018-06-02T06:04:47.056Z,9.63
2018-06-02T06:09:49.629Z,7.40
2018-06-02T06:14:52.174Z,8.57
2018-06-02T06:19:54.722Z,6.10
2018-06-02T06:24:58.033Z,6.33
2018-06-02T06:30:01.355Z,7.97
2018-06-02T06:35:04.680Z,7.43
2018-06-02T06:40:07.291Z,8.07
2018-06-02T06:45:09.856Z,8.33
2018-06-02T06:50:13.218Z,10.03
2018-06-02T06:55:15.863Z,8.60
2018-06-02T07:00:19.176Z,9.93
2018-06-02T07:05:22.522Z,10.90
2018-06-02T07:10:25.173Z,10.00
2018-06-02T07:15:27.750Z,10.47
2018-06-02T07:20:30.304Z,9.93
2018-06-02T07:25:32.865Z,9.27
2018-06-02T07:30:36.161Z,9.37
2018-06-02T07:35:38.765Z,11.17
2018-06-02T07:40:41.329Z,11.97
2018-06-02T07:45:43.932Z,9.97
2018-06-02T07:50:46.519Z,10.80
2018-06-02T07:55:49.054Z,12.67
2018-06-02T08:00:51.602Z,10.60
2018-06-02T08:05:54.130Z,10.70
2018-06-02T08:10:56.697Z,9.90
2018-06-02T08:15:59.217Z,9.33
2018-06-02T08:21:01.738Z,9.13
2018-06-02T08:26:05.026Z,8.80
2018-06-02T08:31:07.561Z,9.47
2018-06-02T08:36:10.137Z,8.63
2018-06-02T08:41:13.429Z,9.40
2018-06-02T08:46:15.960Z,7.83
2018-06-02T08:51:18.497Z,8.67
2018-06-02T08:56:21.027Z,9.07
2018-06-02T09:01:24.339Z,6.73
2018-06-02T09:06:28.624Z,8.23
2018-06-02T09:11:31.934Z,7.63
2018-06-02T09:16:34.486Z,5.37
2018-06-02T09:21:37.869Z,5.70
2018-06-02T09:26:40.451Z,5.37
2018-06-02T09:31:43.005Z,7.10
2018-06-02T09:36:45.597Z,5.87
2018-06-02T09:41:48.952Z,5.93
2018-06-02T09:46:52.450Z,5.73
2018-06-02T09:51:58.206Z,8.67
2018-06-02T09:57:01.590Z,6.57
2018-06-02T10:02:04.933Z,9.83
2018-06-02T10:07:07.546Z,19.60
2018-06-02T10:12:11.099Z,25.03
2018-06-02T10:17:14.436Z,10.00
2018-06-02T10:22:17.062Z,5.87
2018-06-02T10:27:23.109Z,3.50
2018-06-02T10:32:28.439Z,3.43
2018-06-02T10:37:34.879Z,3.30
2018-06-02T10:42:39.100Z,3.23
2018-06-02T10:47:41.731Z,3.10
2018-06-02T10:52:44.357Z,4.00
2018-06-02T10:57:46.958Z,3.23
2018-06-02T11:02:49.643Z,2.90
2018-06-02T11:07:53.062Z,12.53
2018-06-02T11:12:55.704Z,2.70
2018-06-02T11:17:58.291Z,4.33
2018-06-02T11:23:00.893Z,2.30
2018-06-02T11:28:03.474Z,2.50
2018-06-02T11:33:06.099Z,2.37
2018-06-02T11:38:10.131Z,2.60
2018-06-02T11:43:14.569Z,2.27
2018-06-02T11:48:17.237Z,2.47
2018-06-02T11:53:20.691Z,2.37
2018-06-02T11:58:23.314Z,2.20
2018-06-02T12:03:25.939Z,4.47
2018-06-02T12:08:28.529Z,2.17
2018-06-02T12:13:31.866Z,2.40
2018-06-02T12:18:35.623Z,1.97
2018-06-02T12:23:41.343Z,2.40
2018-06-02T12:28:47.258Z,2.27
2018-06-02T12:33:53.153Z,2.37
2018-06-02T12:38:59.690Z,3.37
2018-06-02T12:49:37.273Z,2.03
2018-06-02T12:54:43.599Z,1.77
2018-06-02T12:59:50.585Z,2.10
2018-06-02T13:04:55.001Z,2.23
2018-06-02T13:09:57.600Z,2.47
2018-06-02T13:15:03.486Z,2.47
2018-06-02T13:20:15.931Z,3.53
2018-06-02T13:25:25.696Z,1.97
2018-06-02T13:30:31.149Z,1.80
2018-06-02T13:35:39.943Z,1.80
2018-06-02T13:40:46.630Z,2.20
2018-06-02T13:51:06.413Z,2.97
2018-06-02T13:56:23.846Z,2.70
2018-06-02T14:01:30.189Z,2.77
2018-06-02T14:06:40.491Z,1.70
2018-06-02T14:11:48.352Z,1.65
2018-06-02T14:16:56.913Z,1.52
2018-06-02T14:22:08.256Z,1.50
2018-06-02T14:27:18.563Z,1.50
2018-06-02T14:37:53.761Z,1.73
2018-06-02T14:48:25.045Z,1.33
2018-06-02T14:53:34.250Z,1.57
2018-06-02T14:58:41.141Z,1.50
2018-06-02T15:03:48.201Z,1.30
2018-06-02T15:08:56.874Z,1.87
2018-06-02T15:14:02.942Z,2.43
2018-06-02T15:19:09.648Z,4.33
2018-06-02T15:24:12.881Z,4.23
2018-06-02T15:29:19.197Z,2.10
2018-06-02T15:34:23.507Z,3.93
2018-06-02T15:39:29.851Z,2.40
2018-06-02T15:44:37.601Z,3.77
2018-06-02T15:49:40.874Z,1.80
2018-06-02T15:54:46.311Z,2.57
2018-06-02T15:59:53.321Z,1.77
2018-06-02T16:05:01.505Z,4.07
2018-06-02T16:10:07.005Z,2.23
2018-06-02T16:15:09.729Z,1.63
2018-06-02T16:20:16.038Z,1.77
2018-06-02T16:25:21.559Z,1.93
2018-06-02T16:30:27.855Z,1.80
2018-06-02T16:35:33.763Z,2.30
2018-06-02T16:40:38.089Z,1.87
2018-06-02T16:45:44.057Z,2.00
2018-06-02T16:50:48.932Z,1.97
2018-06-02T16:55:53.081Z,2.00
2018-06-02T17:01:00.891Z,1.80
2018-06-02T17:06:06.084Z,1.70
2018-06-02T17:11:10.601Z,1.93
2018-06-02T17:16:13.967Z,2.27
2018-06-02T17:21:22.593Z,2.13
2018-06-02T17:26:32.290Z,1.77
2018-06-02T17:31:37.981Z,2.10
2018-06-02T17:36:42.313Z,1.67
2018-06-02T17:41:54.758Z,3.60
2018-06-02T17:47:02.430Z,2.20
2018-06-02T17:52:07.813Z,3.60
2018-06-02T17:57:11.277Z,1.73
2018-06-02T18:02:17.226Z,2.20
2018-06-02T18:07:20.303Z,1.57
2018-06-02T18:12:24.690Z,3.63
2018-06-02T18:17:27.301Z,3.83
2018-06-02T18:22:29.929Z,2.80
2018-06-02T18:27:32.554Z,2.63
2018-06-02T18:32:38.178Z,2.40
2018-06-02T18:37:41.719Z,2.93
2018-06-02T18:42:44.452Z,2.40
2018-06-02T18:47:47.081Z,2.60
2018-06-02T18:52:49.687Z,2.63
2018-06-02T18:57:52.289Z,2.47
2018-06-02T19:02:55.670Z,2.33
2018-06-02T19:07:59.071Z,2.20
2018-06-02T19:13:01.644Z,2.63
2018-06-02T19:18:04.965Z,3.33
2018-06-02T19:23:08.349Z,2.40
2018-06-02T19:28:10.958Z,3.90
2018-06-02T19:33:14.868Z,2.20
2018-06-02T19:38:17.538Z,2.50
2018-06-02T19:43:20.139Z,3.80
2018-06-02T19:48:22.815Z,2.30
2018-06-02T19:53:25.383Z,2.07
2018-06-02T19:58:42.659Z,2.83
2018-06-02T20:03:45.253Z,2.50
2018-06-02T20:08:47.811Z,2.23
2018-06-02T20:13:51.240Z,2.10
2018-06-02T20:18:53.984Z,2.20
2018-06-02T20:23:56.592Z,2.27
2018-06-02T20:28:59.222Z,3.10
2018-06-02T20:34:02.735Z,2.20
2018-06-02T20:39:06.152Z,2.93
2018-06-02T20:44:08.752Z,2.07
2018-06-02T20:49:11.332Z,2.17
2018-06-02T20:54:13.953Z,2.00
2018-06-02T20:59:16.493Z,3.23
2018-06-02T21:04:19.079Z,2.40
2018-06-02T21:09:21.710Z,2.60
2018-06-02T21:14:25.110Z,2.30
2018-06-02T21:19:28.745Z,2.00
2018-06-02T21:24:32.535Z,2.23
2018-06-02T21:29:35.938Z,2.07
2018-06-02T21:34:38.511Z,2.27
2018-06-02T21:39:41.819Z,2.33
2018-06-02T21:44:47.894Z,4.30
2018-06-02T21:49:50.482Z,2.10
2018-06-02T21:54:53.098Z,1.60
2018-06-02T21:59:55.653Z,2.10
2018-06-02T22:04:59.027Z,2.20
2018-06-02T22:10:02.469Z,2.10
2018-06-02T22:15:05.040Z,2.30
2018-06-02T22:20:07.579Z,2.37
2018-06-02T22:25:14.325Z,2.00
2018-06-02T22:30:16.868Z,2.60
2018-06-02T22:35:20.180Z,2.13
2018-06-02T22:40:24.149Z,2.40
2018-06-02T22:45:26.698Z,2.17
2018-06-02T22:50:30.004Z,2.00
2018-06-02T22:55:33.520Z,1.97
2018-06-02T23:00:36.110Z,2.20
2018-06-02T23:05:38.656Z,1.90
2018-06-02T23:11:35.383Z,2.60
2018-06-02T23:16:38.924Z,2.40
2018-06-02T23:21:42.546Z,2.50
2018-06-02T23:26:46.174Z,2.57
2018-06-02T23:31:49.834Z,2.30
2018-06-02T23:36:53.398Z,2.20
2018-06-02T23:41:57.079Z,2.40
2018-06-02T23:47:01.244Z,2.97
2018-06-02T23:52:05.458Z,3.10
2018-06-02T23:57:08.989Z,2.10
